sensor_id;sensor_type;location;lat;lon;timestamp;temperature;humidity
65235;DHT22;51820;48.374;10.930;2022-08-21T00:05:49;17.90;90.40
65235;DHT22;51820;48.374;10.930;2022-08-21T00:08:19;23.70;91.70
65235;DHT22;51820;48.374;10.930;2022-08-21T00:10:49;18.60;72.00
65235;DHT22;51820;48.374;10.930;2022-08-21T00:13:18;18.60;72.20
65235;DHT22;51820;48.374;10.930;2022-08-21T00:15:47;18.00;90.40
65235;DHT22;51820;48.374;10.930;2022-08-21T00:18:16;16.20;90.00
65235;DHT22;51820;48.374;10.930;2022-08-21T00:20:46;18.60;72.20
65235;DHT22;51820;48.374;10.930;2022-08-21T00:23:15;18.60;72.30
65235;DHT22;51820;48.374;10.930;2022-08-21T00:25:44;18.60;72.30
65235;DHT22;51820;48.374;10.930;2022-08-21T00:28:14;18.50;72.50
65235;DHT22;51820;48.374;10.930;2022-08-21T00:33:12;20.30;73.60
65235;DHT22;51820;48.374;10.930;2022-08-21T00:35:41;18.50;72.60
65235;DHT22;51820;48.374;10.930;2022-08-21T00:38:10;18.50;72.50
65235;DHT22;51820;48.374;10.930;2022-08-21T00:40:43;18.50;72.50
65235;DHT22;51820;48.374;10.930;2022-08-21T00:43:17;18.50;72.40
65235;DHT22;51820;48.374;10.930;2022-08-21T00:50:48;18.40;72.20
65235;DHT22;51820;48.374;10.930;2022-08-21T00:55:48;16.70;90.40
65235;DHT22;51820;48.374;10.930;2022-08-21T00:58:19;18.50;72.10
65235;DHT22;51820;48.374;10.930;2022-08-21T01:00:49;18.40;72.20
65235;DHT22;51820;48.374;10.930;2022-08-21T01:03:21;18.50;72.00
65235;DHT22;51820;48.374;10.930;2022-08-21T01:05:50;18.50;71.80
65235;DHT22;51820;48.374;10.930;2022-08-21T01:08:19;18.40;71.60
65235;DHT22;51820;48.374;10.930;2022-08-21T01:13:27;18.40;71.90
65235;DHT22;51820;48.374;10.930;2022-08-21T01:15:59;18.40;71.90
65235;DHT22;51820;48.374;10.930;2022-08-21T01:21:07;18.30;72.00
65235;DHT22;51820;48.374;10.930;2022-08-21T01:23:41;18.30;72.00
65235;DHT22;51820;48.374;10.930;2022-08-21T01:26:12;18.30;72.10
65235;DHT22;51820;48.374;10.930;2022-08-21T01:28:44;18.30;72.00
65235;DHT22;51820;48.374;10.930;2022-08-21T01:31:15;18.20;71.90
65235;DHT22;51820;48.374;10.930;2022-08-21T01:33:52;18.20;71.90
65235;DHT22;51820;48.374;10.930;2022-08-21T01:36:22;18.20;71.90
65235;DHT22;51820;48.374;10.930;2022-08-21T01:53:43;18.10;71.70
65235;DHT22;51820;48.374;10.930;2022-08-21T01:56:13;18.10;71.40
65235;DHT22;51820;48.374;10.930;2022-08-21T01:58:44;18.10;71.40
65235;DHT22;51820;48.374;10.930;2022-08-21T02:01:13;18.10;71.40
65235;DHT22;51820;48.374;10.930;2022-08-21T02:06:14;18.00;71.10
65235;DHT22;51820;48.374;10.930;2022-08-21T02:08:46;18.00;71.40
65235;DHT22;51820;48.374;10.930;2022-08-21T02:26:12;18.00;71.60
65235;DHT22;51820;48.374;10.930;2022-08-21T02:36:07;16.10;90.20
65235;DHT22;51820;48.374;10.930;2022-08-21T02:38:37;18.00;71.50
65235;DHT22;51820;48.374;10.930;2022-08-21T02:41:08;18.00;71.40
65235;DHT22;51820;48.374;10.930;2022-08-21T02:43:38;18.00;71.40
65235;DHT22;51820;48.374;10.930;2022-08-21T02:46:08;18.00;71.40
65235;DHT22;51820;48.374;10.930;2022-08-21T02:51:11;19.80;72.20
65235;DHT22;51820;48.374;10.930;2022-08-21T02:53:40;17.90;71.30
65235;DHT22;51820;48.374;10.930;2022-08-21T02:56:11;17.90;71.30
65235;DHT22;51820;48.374;10.930;2022-08-21T02:58:45;17.90;71.30
65235;DHT22;51820;48.374;10.930;2022-08-21T03:03:44;17.90;70.90
65235;DHT22;51820;48.374;10.930;2022-08-21T03:06:14;17.90;70.90
65235;DHT22;51820;48.374;10.930;2022-08-21T03:13:43;17.70;70.70
65235;DHT22;51820;48.374;10.930;2022-08-21T03:31:05;17.60;70.50
65235;DHT22;51820;48.374;10.930;2022-08-21T03:36:04;17.50;70.30
65235;DHT22;51820;48.374;10.930;2022-08-21T03:38:34;17.50;70.80
65235;DHT22;51820;48.374;10.930;2022-08-21T03:41:06;17.50;71.30
65235;DHT22;51820;48.374;10.930;2022-08-21T03:43:34;17.50;71.50
65235;DHT22;51820;48.374;10.930;2022-08-21T03:46:05;17.50;71.60
65235;DHT22;51820;48.374;10.930;2022-08-21T03:48:35;17.50;71.40
65235;DHT22;51820;48.374;10.930;2022-08-21T03:51:04;17.50;71.40
65235;DHT22;51820;48.374;10.930;2022-08-21T04:01:00;17.50;71.70
65235;DHT22;51820;48.374;10.930;2022-08-21T04:03:30;17.40;71.50
65235;DHT22;51820;48.374;10.930;2022-08-21T04:10:58;17.40;71.80
65235;DHT22;51820;48.374;10.930;2022-08-21T04:20:56;16.60;90.60
65235;DHT22;51820;48.374;10.930;2022-08-21T04:23:25;14.90;90.10
65235;DHT22;51820;48.374;10.930;2022-08-21T04:25:55;17.40;71.40
65235;DHT22;51820;48.374;10.930;2022-08-21T04:28:25;17.40;71.50
65235;DHT22;51820;48.374;10.930;2022-08-21T04:30:58;17.40;71.30
65235;DHT22;51820;48.374;10.930;2022-08-21T04:36:00;17.40;71.20
65235;DHT22;51820;48.374;10.930;2022-08-21T04:41:05;17.40;71.50
65235;DHT22;51820;48.374;10.930;2022-08-21T04:43:50;17.40;72.20
65235;DHT22;51820;48.374;10.930;2022-08-21T04:51:24;17.30;71.40
65235;DHT22;51820;48.374;10.930;2022-08-21T04:53:55;17.20;71.50
65235;DHT22;51820;48.374;10.930;2022-08-21T04:56:28;17.40;71.70
65235;DHT22;51820;48.374;10.930;2022-08-21T04:59:01;17.30;71.50
65235;DHT22;51820;48.374;10.930;2022-08-21T05:01:34;14.90;77.00
65235;DHT22;51820;48.374;10.930;2022-08-21T05:04:04;18.30;71.90
65235;DHT22;51820;48.374;10.930;2022-08-21T05:06:36;17.40;71.40
65235;DHT22;51820;48.374;10.930;2022-08-21T05:09:06;17.30;71.50
65235;DHT22;51820;48.374;10.930;2022-08-21T05:11:36;17.40;71.50
65235;DHT22;51820;48.374;10.930;2022-08-21T05:24:02;17.40;71.80
65235;DHT22;51820;48.374;10.930;2022-08-21T05:39:11;17.40;71.80
65235;DHT22;51820;48.374;10.930;2022-08-21T05:54:03;17.40;71.30
65235;DHT22;51820;48.374;10.930;2022-08-21T05:56:32;17.50;71.20
65235;DHT22;51820;48.374;10.930;2022-08-21T05:59:01;15.00;90.20
65235;DHT22;51820;48.374;10.930;2022-08-21T06:11:33;17.60;70.70
65235;DHT22;51820;48.374;10.930;2022-08-21T06:14:01;16.50;90.40
65235;DHT22;51820;48.374;10.930;2022-08-21T06:18:57;17.10;80.10
65235;DHT22;51820;48.374;10.930;2022-08-21T06:28:56;16.90;88.80
65235;DHT22;51820;48.374;10.930;2022-08-21T06:31:26;17.90;68.50
65235;DHT22;51820;48.374;10.930;2022-08-21T06:33:55;15.80;87.30
65235;DHT22;51820;48.374;10.930;2022-08-21T06:36:23;16.10;87.20
65235;DHT22;51820;48.374;10.930;2022-08-21T06:38:51;15.50;86.70
65235;DHT22;51820;48.374;10.930;2022-08-21T06:43:53;23.30;90.20
65235;DHT22;51820;48.374;10.930;2022-08-21T06:46:23;18.20;67.50
65235;DHT22;51820;48.374;10.930;2022-08-21T06:53:48;18.30;66.60
65235;DHT22;51820;48.374;10.930;2022-08-21T06:58:45;18.30;65.80
65235;DHT22;51820;48.374;10.930;2022-08-21T07:03:46;18.30;66.70
65235;DHT22;51820;48.374;10.930;2022-08-21T07:11:14;18.40;66.70
65235;DHT22;51820;48.374;10.930;2022-08-21T07:13:45;17.70;86.00
65235;DHT22;51820;48.374;10.930;2022-08-21T07:21:11;18.50;66.70
65235;DHT22;51820;48.374;10.930;2022-08-21T07:23:41;18.50;67.00
65235;DHT22;51820;48.374;10.930;2022-08-21T07:31:13;18.60;66.60
65235;DHT22;51820;48.374;10.930;2022-08-21T07:33:42;16.00;84.60
65235;DHT22;51820;48.374;10.930;2022-08-21T07:36:12;18.70;66.60
65235;DHT22;51820;48.374;10.930;2022-08-21T07:38:40;16.00;84.80
65235;DHT22;51820;48.374;10.930;2022-08-21T07:41:13;18.00;85.50
65235;DHT22;51820;48.374;10.930;2022-08-21T07:43:42;23.60;88.20
65235;DHT22;51820;48.374;10.930;2022-08-21T07:48:40;18.10;85.30
65235;DHT22;51820;48.374;10.930;2022-08-21T07:51:10;18.90;66.50
65235;DHT22;51820;48.374;10.930;2022-08-21T07:53:40;18.90;66.40
65235;DHT22;51820;48.374;10.930;2022-08-21T07:56:08;16.50;84.10
65235;DHT22;51820;48.374;10.930;2022-08-21T07:58:37;16.50;84.10
65235;DHT22;51820;48.374;10.930;2022-08-21T08:03:34;17.90;83.60
65235;DHT22;51820;48.374;10.930;2022-08-21T08:06:03;17.50;83.20
65235;DHT22;51820;48.374;10.930;2022-08-21T08:08:32;19.10;65.00
65235;DHT22;51820;48.374;10.930;2022-08-21T08:11:01;19.20;65.40
65235;DHT22;51820;48.374;10.930;2022-08-21T08:13:29;24.30;87.60
65235;DHT22;51820;48.374;10.930;2022-08-21T08:18:27;19.20;84.40
65235;DHT22;51820;48.374;10.930;2022-08-21T08:28:24;18.50;84.10
65235;DHT22;51820;48.374;10.930;2022-08-21T08:33:21;19.40;65.70
65235;DHT22;51820;48.374;10.930;2022-08-21T08:35:50;19.50;65.90
65235;DHT22;51820;48.374;10.930;2022-08-21T08:38:21;19.70;66.60
65235;DHT22;51820;48.374;10.930;2022-08-21T08:40:54;19.80;66.30
65235;DHT22;51820;48.374;10.930;2022-08-21T08:43:32;20.00;65.60
65235;DHT22;51820;48.374;10.930;2022-08-21T08:46:04;20.20;64.70
65235;DHT22;51820;48.374;10.930;2022-08-21T08:48:43;20.40;63.20
65235;DHT22;51820;48.374;10.930;2022-08-21T08:51:22;20.60;63.30
65235;DHT22;51820;48.374;10.930;2022-08-21T08:53:55;25.50;83.60
65235;DHT22;51820;48.374;10.930;2022-08-21T08:56:28;18.40;79.30
65235;DHT22;51820;48.374;10.930;2022-08-21T08:59:02;21.20;62.30
65235;DHT22;51820;48.374;10.930;2022-08-21T09:04:05;21.30;61.10
65235;DHT22;51820;48.374;10.930;2022-08-21T09:06:45;21.50;60.80
65235;DHT22;51820;48.374;10.930;2022-08-21T09:09:27;21.70;60.50
65235;DHT22;51820;48.374;10.930;2022-08-21T09:12:02;21.90;61.00
65235;DHT22;51820;48.374;10.930;2022-08-21T09:14:49;22.10;60.20
65235;DHT22;51820;48.374;10.930;2022-08-21T09:17:30;22.30;59.90
65235;DHT22;51820;48.374;10.930;2022-08-21T09:20:15;22.50;59.50
65235;DHT22;51820;48.374;10.930;2022-08-21T09:22:53;22.70;59.40
65235;DHT22;51820;48.374;10.930;2022-08-21T09:25:28;22.80;57.50
65235;DHT22;51820;48.374;10.930;2022-08-21T09:30:32;20.60;70.90
65235;DHT22;51820;48.374;10.930;2022-08-21T09:37:59;23.60;54.50
65235;DHT22;51820;48.374;10.930;2022-08-21T09:40:33;23.80;53.10
65235;DHT22;51820;48.374;10.930;2022-08-21T09:43:04;23.90;53.30
65235;DHT22;51820;48.374;10.930;2022-08-21T09:45:35;21.90;68.20
65235;DHT22;51820;48.374;10.930;2022-08-21T09:48:12;23.50;68.80
65235;DHT22;51820;48.374;10.930;2022-08-21T09:50:42;24.40;49.70
65235;DHT22;51820;48.374;10.930;2022-08-21T09:53:18;22.20;60.80
65235;DHT22;51820;48.374;10.930;2022-08-21T09:55:51;26.10;50.40
65235;DHT22;51820;48.374;10.930;2022-08-21T09:58:39;24.80;49.20
65235;DHT22;51820;48.374;10.930;2022-08-21T10:01:14;25.00;48.50
65235;DHT22;51820;48.374;10.930;2022-08-21T10:06:22;25.20;47.10
65235;DHT22;51820;48.374;10.930;2022-08-21T10:11:26;25.40;42.70
65235;DHT22;51820;48.374;10.930;2022-08-21T10:14:00;25.50;41.60
65235;DHT22;51820;48.374;10.930;2022-08-21T10:16:39;25.60;42.30
65235;DHT22;51820;48.374;10.930;2022-08-21T10:19:17;25.60;44.40
65235;DHT22;51820;48.374;10.930;2022-08-21T10:22:00;25.70;43.90
65235;DHT22;51820;48.374;10.930;2022-08-21T10:24:35;25.80;44.10
65235;DHT22;51820;48.374;10.930;2022-08-21T10:27:15;25.90;44.80
65235;DHT22;51820;48.374;10.930;2022-08-21T10:29:49;26.00;42.30
65235;DHT22;51820;48.374;10.930;2022-08-21T10:32:29;26.10;42.00
65235;DHT22;51820;48.374;10.930;2022-08-21T10:35:05;26.10;42.90
65235;DHT22;51820;48.374;10.930;2022-08-21T10:37:44;26.30;41.90
65235;DHT22;51820;48.374;10.930;2022-08-21T10:40:22;26.30;40.40
65235;DHT22;51820;48.374;10.930;2022-08-21T10:43:04;26.40;39.10
65235;DHT22;51820;48.374;10.930;2022-08-21T10:45:42;26.50;39.20
65235;DHT22;51820;48.374;10.930;2022-08-21T10:48:21;26.60;41.00
65235;DHT22;51820;48.374;10.930;2022-08-21T10:50:53;26.70;41.70
65235;DHT22;51820;48.374;10.930;2022-08-21T10:53:35;26.80;39.20
65235;DHT22;51820;48.374;10.930;2022-08-21T10:56:13;26.10;52.00
65235;DHT22;51820;48.374;10.930;2022-08-21T10:58:58;26.90;36.30
65235;DHT22;51820;48.374;10.930;2022-08-21T11:01:32;26.70;35.00
65235;DHT22;51820;48.374;10.930;2022-08-21T11:04:11;24.90;49.70
65235;DHT22;51820;48.374;10.930;2022-08-21T11:06:44;26.60;37.10
65235;DHT22;51820;48.374;10.930;2022-08-21T11:09:15;26.60;38.00
65235;DHT22;51820;48.374;10.930;2022-08-21T11:11:49;26.80;37.00
65235;DHT22;51820;48.374;10.930;2022-08-21T11:14:44;26.90;36.90
65235;DHT22;51820;48.374;10.930;2022-08-21T11:17:20;27.10;36.20
65235;DHT22;51820;48.374;10.930;2022-08-21T11:19:54;27.20;36.00
65235;DHT22;51820;48.374;10.930;2022-08-21T11:22:31;27.40;35.00
65235;DHT22;51820;48.374;10.930;2022-08-21T11:25:07;27.50;35.10
65235;DHT22;51820;48.374;10.930;2022-08-21T11:27:42;27.50;36.00
65235;DHT22;51820;48.374;10.930;2022-08-21T11:30:12;27.60;34.00
65235;DHT22;51820;48.374;10.930;2022-08-21T11:32:58;27.70;34.90
65235;DHT22;51820;48.374;10.930;2022-08-21T11:35:37;27.80;33.90
65235;DHT22;51820;48.374;10.930;2022-08-21T11:38:20;25.80;33.90
65235;DHT22;51820;48.374;10.930;2022-08-21T11:41:01;27.60;47.00
65235;DHT22;51820;48.374;10.930;2022-08-21T11:43:38;27.70;33.00
65235;DHT22;51820;48.374;10.930;2022-08-21T11:46:19;27.60;31.50
65235;DHT22;51820;48.374;10.930;2022-08-21T11:49:02;27.60;30.80
65235;DHT22;51820;48.374;10.930;2022-08-21T11:51:39;27.60;29.80
65235;DHT22;51820;48.374;10.930;2022-08-21T11:54:16;27.60;30.00
65235;DHT22;51820;48.374;10.930;2022-08-21T11:56:52;27.10;44.80
65235;DHT22;51820;48.374;10.930;2022-08-21T11:59:28;27.50;30.00
65235;DHT22;51820;48.374;10.930;2022-08-21T12:02:12;27.30;30.50
65235;DHT22;51820;48.374;10.930;2022-08-21T12:04:46;26.80;45.20
65235;DHT22;51820;48.374;10.930;2022-08-21T12:07:29;27.00;30.50
65235;DHT22;51820;48.374;10.930;2022-08-21T12:09:59;26.90;29.90
65235;DHT22;51820;48.374;10.930;2022-08-21T12:12:30;26.80;30.40
65235;DHT22;51820;48.374;10.930;2022-08-21T12:15:17;25.00;43.10
65235;DHT22;51820;48.374;10.930;2022-08-21T12:17:55;26.90;29.20
65235;DHT22;51820;48.374;10.930;2022-08-21T12:20:35;27.10;29.60
65235;DHT22;51820;48.374;10.930;2022-08-21T12:23:15;27.40;29.60
65235;DHT22;51820;48.374;10.930;2022-08-21T12:25:47;27.50;29.60
65235;DHT22;51820;48.374;10.930;2022-08-21T12:28:22;26.90;35.20
65235;DHT22;51820;48.374;10.930;2022-08-21T12:33:27;27.60;28.10
65235;DHT22;51820;48.374;10.930;2022-08-21T12:36:05;27.70;28.20
65235;DHT22;51820;48.374;10.930;2022-08-21T12:38:45;27.60;27.60
65235;DHT22;51820;48.374;10.930;2022-08-21T12:41:19;27.70;29.10
65235;DHT22;51820;48.374;10.930;2022-08-21T12:43:53;26.90;42.90
65235;DHT22;51820;48.374;10.930;2022-08-21T12:46:30;27.70;29.30
65235;DHT22;51820;48.374;10.930;2022-08-21T12:49:03;27.00;42.90
65235;DHT22;51820;48.374;10.930;2022-08-21T12:51:47;27.60;29.70
65235;DHT22;51820;48.374;10.930;2022-08-21T12:54:25;27.60;30.50
65235;DHT22;51820;48.374;10.930;2022-08-21T12:57:00;27.50;44.60
65235;DHT22;51820;48.374;10.930;2022-08-21T12:59:29;26.20;43.10
65235;DHT22;51820;48.374;10.930;2022-08-21T13:02:00;27.60;30.00
65235;DHT22;51820;48.374;10.930;2022-08-21T13:04:35;27.70;29.90
65235;DHT22;51820;48.374;10.930;2022-08-21T13:07:07;26.30;43.90
65235;DHT22;51820;48.374;10.930;2022-08-21T13:09:43;26.50;43.90
65235;DHT22;51820;48.374;10.930;2022-08-21T13:12:12;26.10;43.20
65235;DHT22;51820;48.374;10.930;2022-08-21T13:14:42;26.30;33.40
65235;DHT22;51820;48.374;10.930;2022-08-21T13:17:16;27.70;30.00
65235;DHT22;51820;48.374;10.930;2022-08-21T13:19:56;27.70;29.80
65235;DHT22;51820;48.374;10.930;2022-08-21T13:22:25;27.70;30.10
65235;DHT22;51820;48.374;10.930;2022-08-21T13:25:03;27.60;28.40
65235;DHT22;51820;48.374;10.930;2022-08-21T13:30:09;27.60;29.80
65235;DHT22;51820;48.374;10.930;2022-08-21T13:32:41;27.20;43.00
65235;DHT22;51820;48.374;10.930;2022-08-21T13:35:15;27.60;30.00
65235;DHT22;51820;48.374;10.930;2022-08-21T13:37:46;25.70;41.80
65235;DHT22;51820;48.374;10.930;2022-08-21T13:40:19;25.90;40.70
65235;DHT22;51820;48.374;10.930;2022-08-21T13:42:54;27.50;27.10
65235;DHT22;51820;48.374;10.930;2022-08-21T13:45:27;27.40;27.40
65235;DHT22;51820;48.374;10.930;2022-08-21T13:47:55;27.20;29.80
65235;DHT22;51820;48.374;10.930;2022-08-21T13:50:24;25.60;32.50
65235;DHT22;51820;48.374;10.930;2022-08-21T13:52:59;25.70;32.80
65235;DHT22;51820;48.374;10.930;2022-08-21T13:55:40;27.30;28.90
65235;DHT22;51820;48.374;10.930;2022-08-21T13:58:10;26.70;44.60
65235;DHT22;51820;48.374;10.930;2022-08-21T14:00:45;27.20;29.70
65235;DHT22;51820;48.374;10.930;2022-08-21T14:03:27;25.50;43.10
65235;DHT22;51820;48.374;10.930;2022-08-21T14:08:31;26.90;42.80
65235;DHT22;51820;48.374;10.930;2022-08-21T14:11:04;26.00;43.90
65235;DHT22;51820;48.374;10.930;2022-08-21T14:13:38;25.10;41.90
65235;DHT22;51820;48.374;10.930;2022-08-21T14:16:14;26.80;29.00
65235;DHT22;51820;48.374;10.930;2022-08-21T14:18:48;25.20;43.00
65235;DHT22;51820;48.374;10.930;2022-08-21T14:21:29;26.60;31.60
65235;DHT22;51820;48.374;10.930;2022-08-21T14:24:07;26.60;29.50
65235;DHT22;51820;48.374;10.930;2022-08-21T14:26:44;26.90;29.30
65235;DHT22;51820;48.374;10.930;2022-08-21T14:29:15;25.10;40.90
65235;DHT22;51820;48.374;10.930;2022-08-21T14:31:49;25.30;40.90
65235;DHT22;51820;48.374;10.930;2022-08-21T14:34:18;26.00;42.50
65235;DHT22;51820;48.374;10.930;2022-08-21T14:36:48;24.70;44.50
65235;DHT22;51820;48.374;10.930;2022-08-21T14:41:47;25.40;39.40
65235;DHT22;51820;48.374;10.930;2022-08-21T14:44:17;26.80;45.10
65235;DHT22;51820;48.374;10.930;2022-08-21T14:46:46;25.50;42.40
65235;DHT22;51820;48.374;10.930;2022-08-21T14:49:23;26.40;41.60
65235;DHT22;51820;48.374;10.930;2022-08-21T14:57:02;26.60;46.90
65235;DHT22;51820;48.374;10.930;2022-08-21T15:02:01;24.80;46.50
65235;DHT22;51820;48.374;10.930;2022-08-21T15:04:31;26.00;47.70
65235;DHT22;51820;48.374;10.930;2022-08-21T15:12:00;26.70;32.10
65235;DHT22;51820;48.374;10.930;2022-08-21T15:14:32;26.00;46.90
65235;DHT22;51820;48.374;10.930;2022-08-21T15:26:58;25.90;32.70
65235;DHT22;51820;48.374;10.930;2022-08-21T15:29:28;26.60;30.60
65235;DHT22;51820;48.374;10.930;2022-08-21T15:32:01;26.60;30.40
65235;DHT22;51820;48.374;10.930;2022-08-21T15:34:30;25.00;45.50
65235;DHT22;51820;48.374;10.930;2022-08-21T15:36:58;25.90;46.20
65235;DHT22;51820;48.374;10.930;2022-08-21T15:39:27;26.40;31.90
65235;DHT22;51820;48.374;10.930;2022-08-21T15:41:57;26.30;44.30
65235;DHT22;51820;48.374;10.930;2022-08-21T15:44:38;24.50;46.10
65235;DHT22;51820;48.374;10.930;2022-08-21T15:47:07;24.80;46.50
65235;DHT22;51820;48.374;10.930;2022-08-21T15:52:05;24.50;46.60
65235;DHT22;51820;48.374;10.930;2022-08-21T15:54:33;24.70;47.20
65235;DHT22;51820;48.374;10.930;2022-08-21T15:57:01;24.30;46.10
65235;DHT22;51820;48.374;10.930;2022-08-21T15:59:38;25.40;46.40
65235;DHT22;51820;48.374;10.930;2022-08-21T16:02:13;25.40;46.90
65235;DHT22;51820;48.374;10.930;2022-08-21T16:04:42;25.00;46.70
65235;DHT22;51820;48.374;10.930;2022-08-21T16:07:11;25.50;47.00
65235;DHT22;51820;48.374;10.930;2022-08-21T16:09:39;24.80;46.50
65235;DHT22;51820;48.374;10.930;2022-08-21T16:12:08;26.00;31.00
65235;DHT22;51820;48.374;10.930;2022-08-21T16:14:37;24.90;46.30
65235;DHT22;51820;48.374;10.930;2022-08-21T16:19:36;25.80;46.90
65235;DHT22;51820;48.374;10.930;2022-08-21T16:22:05;24.70;46.00
65235;DHT22;51820;48.374;10.930;2022-08-21T16:24:33;25.20;45.40
65235;DHT22;51820;48.374;10.930;2022-08-21T16:27:03;24.80;45.80
65235;DHT22;51820;48.374;10.930;2022-08-21T16:29:35;25.50;46.60
65235;DHT22;51820;48.374;10.930;2022-08-21T16:32:05;26.00;30.20
65235;DHT22;51820;48.374;10.930;2022-08-21T16:34:39;25.40;37.30
65235;DHT22;51820;48.374;10.930;2022-08-21T16:37:09;25.20;42.00
65235;DHT22;51820;48.374;10.930;2022-08-21T16:39:37;25.80;46.80
65235;DHT22;51820;48.374;10.930;2022-08-21T16:42:06;24.00;45.50
65235;DHT22;51820;48.374;10.930;2022-08-21T16:49:36;25.90;30.60
65235;DHT22;51820;48.374;10.930;2022-08-21T16:57:01;25.10;46.10
65235;DHT22;51820;48.374;10.930;2022-08-21T16:59:29;25.70;46.50
65235;DHT22;51820;48.374;10.930;2022-08-21T17:01:57;25.80;47.50
65235;DHT22;51820;48.374;10.930;2022-08-21T17:04:25;23.80;46.30
65235;DHT22;51820;48.374;10.930;2022-08-21T17:06:56;24.20;46.00
65235;DHT22;51820;48.374;10.930;2022-08-21T17:09:24;24.00;46.10
65235;DHT22;51820;48.374;10.930;2022-08-21T17:11:52;25.00;46.30
65235;DHT22;51820;48.374;10.930;2022-08-21T17:14:22;24.10;45.80
65235;DHT22;51820;48.374;10.930;2022-08-21T17:16:52;24.00;44.40
65235;DHT22;51820;48.374;10.930;2022-08-21T17:24:19;25.60;31.60
65235;DHT22;51820;48.374;10.930;2022-08-21T17:26:48;24.80;46.80
65235;DHT22;51820;48.374;10.930;2022-08-21T17:29:17;25.50;31.40
65235;DHT22;51820;48.374;10.930;2022-08-21T17:31:47;25.10;46.90
65235;DHT22;51820;48.374;10.930;2022-08-21T17:34:15;25.10;46.70
65235;DHT22;51820;48.374;10.930;2022-08-21T17:36:43;24.40;46.50
65235;DHT22;51820;48.374;10.930;2022-08-21T17:39:11;24.60;46.80
65235;DHT22;51820;48.374;10.930;2022-08-21T17:41:49;25.30;32.30
65235;DHT22;51820;48.374;10.930;2022-08-21T17:44:23;25.20;48.00
65235;DHT22;51820;48.374;10.930;2022-08-21T17:46:52;25.30;47.00
65235;DHT22;51820;48.374;10.930;2022-08-21T17:51:48;24.70;33.10
65235;DHT22;51820;48.374;10.930;2022-08-21T17:54:16;25.10;39.10
65235;DHT22;51820;48.374;10.930;2022-08-21T17:59:14;24.60;36.30
65235;DHT22;51820;48.374;10.930;2022-08-21T18:01:44;25.10;33.10
65235;DHT22;51820;48.374;10.930;2022-08-21T18:04:13;25.00;33.20
65235;DHT22;51820;48.374;10.930;2022-08-21T18:06:41;23.30;47.50
65235;DHT22;51820;48.374;10.930;2022-08-21T18:09:10;23.60;48.10
65235;DHT22;51820;48.374;10.930;2022-08-21T18:11:40;23.90;48.40
65235;DHT22;51820;48.374;10.930;2022-08-21T18:14:09;24.10;48.90
65235;DHT22;51820;48.374;10.930;2022-08-21T18:16:39;22.90;48.30
65235;DHT22;51820;48.374;10.930;2022-08-21T18:19:10;24.30;46.80
65235;DHT22;51820;48.374;10.930;2022-08-21T18:21:41;23.10;48.40
65235;DHT22;51820;48.374;10.930;2022-08-21T18:24:09;22.70;49.00
65235;DHT22;51820;48.374;10.930;2022-08-21T18:26:38;24.50;34.20
65235;DHT22;51820;48.374;10.930;2022-08-21T18:29:09;24.30;34.10
65235;DHT22;51820;48.374;10.930;2022-08-21T18:31:40;24.40;34.40
65235;DHT22;51820;48.374;10.930;2022-08-21T18:34:14;22.80;50.00
65235;DHT22;51820;48.374;10.930;2022-08-21T18:36:46;23.40;50.60
65235;DHT22;51820;48.374;10.930;2022-08-21T18:39:14;23.30;50.00
65235;DHT22;51820;48.374;10.930;2022-08-21T18:42:07;24.20;35.80
65235;DHT22;51820;48.374;10.930;2022-08-21T18:44:37;22.40;51.10
65235;DHT22;51820;48.374;10.930;2022-08-21T18:47:14;24.10;39.70
65235;DHT22;51820;48.374;10.930;2022-08-21T18:52:13;23.30;52.50
65235;DHT22;51820;48.374;10.930;2022-08-21T18:57:17;23.80;37.30
65235;DHT22;51820;48.374;10.930;2022-08-21T18:59:46;23.10;53.70
65235;DHT22;51820;48.374;10.930;2022-08-21T19:02:16;23.70;38.00
65235;DHT22;51820;48.374;10.930;2022-08-21T19:04:44;21.90;54.40
65235;DHT22;51820;48.374;10.930;2022-08-21T19:09:44;22.20;54.90
65235;DHT22;51820;48.374;10.930;2022-08-21T19:12:33;23.50;38.20
65235;DHT22;51820;48.374;10.930;2022-08-21T19:15:07;21.80;54.70
65235;DHT22;51820;48.374;10.930;2022-08-21T19:17:37;23.50;38.70
65235;DHT22;51820;48.374;10.930;2022-08-21T19:20:10;22.10;45.60
65235;DHT22;51820;48.374;10.930;2022-08-21T19:25:19;23.00;53.30
65235;DHT22;51820;48.374;10.930;2022-08-21T19:28:01;23.20;40.00
65235;DHT22;51820;48.374;10.930;2022-08-21T19:30:38;23.20;40.50
65235;DHT22;51820;48.374;10.930;2022-08-21T19:33:21;23.20;40.70
65235;DHT22;51820;48.374;10.930;2022-08-21T19:35:50;21.30;58.20
65235;DHT22;51820;48.374;10.930;2022-08-21T19:38:19;21.00;58.70
65235;DHT22;51820;48.374;10.930;2022-08-21T19:40:47;22.10;59.70
65235;DHT22;51820;48.374;10.930;2022-08-21T19:45:49;21.00;59.30
65235;DHT22;51820;48.374;10.930;2022-08-21T19:48:21;22.80;42.60
65235;DHT22;51820;48.374;10.930;2022-08-21T19:53:19;22.70;43.10
65235;DHT22;51820;48.374;10.930;2022-08-21T19:58:25;22.60;43.90
65235;DHT22;51820;48.374;10.930;2022-08-21T20:03:25;22.60;44.40
65235;DHT22;51820;48.374;10.930;2022-08-21T20:08:22;22.50;45.00
65235;DHT22;51820;48.374;10.930;2022-08-21T20:11:12;22.40;44.80
65235;DHT22;51820;48.374;10.930;2022-08-21T20:13:41;22.30;45.60
65235;DHT22;51820;48.374;10.930;2022-08-21T20:16:13;22.30;46.80
65235;DHT22;51820;48.374;10.930;2022-08-21T20:18:44;22.20;45.80
65235;DHT22;51820;48.374;10.930;2022-08-21T20:26:15;19.20;44.70
65235;DHT22;51820;48.374;10.930;2022-08-21T20:33:47;22.00;46.50
65235;DHT22;51820;48.374;10.930;2022-08-21T20:41:33;21.90;47.10
65235;DHT22;51820;48.374;10.930;2022-08-21T20:49:01;21.80;47.40
65235;DHT22;51820;48.374;10.930;2022-08-21T20:51:34;21.80;47.50
65235;DHT22;51820;48.374;10.930;2022-08-21T20:54:16;21.80;47.90
65235;DHT22;51820;48.374;10.930;2022-08-21T20:56:51;21.80;48.10
65235;DHT22;51820;48.374;10.930;2022-08-21T20:59:47;21.80;48.30
65235;DHT22;51820;48.374;10.930;2022-08-21T21:02:28;21.70;48.40
65235;DHT22;51820;48.374;10.930;2022-08-21T21:05:14;21.70;48.90
65235;DHT22;51820;48.374;10.930;2022-08-21T21:07:52;21.70;49.10
65235;DHT22;51820;48.374;10.930;2022-08-21T21:10:27;21.70;49.20
65235;DHT22;51820;48.374;10.930;2022-08-21T21:13:02;21.70;49.90
65235;DHT22;51820;48.374;10.930;2022-08-21T21:15:33;19.40;68.00
65235;DHT22;51820;48.374;10.930;2022-08-21T21:18:09;21.50;50.10
65235;DHT22;51820;48.374;10.930;2022-08-21T21:20:45;21.50;50.30